»·PEaware :: N738SP KLVK-KCPU

N738SP :: KLVK-KCPU

FLIGHT INFORMATION

Flight Status: Arrived
Operator: Privately registered:
United States
More flights under this callsign
Pilot: Pratham R. (19019)
Aircraft: CESSNA 152 AEROBAT
(C152)
More flights by this aircraft type
Origin: KLVK Livermore Mun
United States
Destination: KCPU Calaveras Co-Rasmussen
United States
More flights between these airports :: More routes between these airports
Route:
File this flight plan on PilotEdge
Remarks:
Altitude:
(Current/Filed)
7,500ft
Speed:
(Current/Filed)
0kts
Departed: 09-Dec-20 02:25 PM
Arrived: 09-Dec-20 03:05 PM
Distance/Time
Traveled:
54nm/0:40
Distance/Time
To Go:
Arrived

Flight Plot

Page will automatically refresh every two minutes.

Flight plan parsing failed; only flown route is shown


Map Options




Map Legend


Flown Route
Filed Route
Departure Airport
Arrival Airport
Navaid (VOR, NDB)
Fix

Horizontal Profiles

Position Reports

Time Latitude Longitude Heading Altitude Ground
Speed
09-Dec-20 14:23 37.702191 -121.741612 73 2722ft 83kts
09-Dec-20 14:24 37.707886 -121.713413 61 3407ft 81kts
09-Dec-20 14:25 37.717274 -121.687014 60 4048ft 82kts
09-Dec-20 14:26 37.721483 -121.658138 85 4676ft 86kts
09-Dec-20 14:27 37.723380 -121.628016 80 5307ft 86kts
09-Dec-20 14:28 37.725831 -121.597366 84 5862ft 89kts
09-Dec-20 14:29 37.728044 -121.565989 87 6395ft 90kts
09-Dec-20 14:30 37.728158 -121.534284 90 6907ft 89kts
09-Dec-20 14:31 37.727245 -121.502358 88 7374ft 92kts
09-Dec-20 14:32 37.731470 -121.467737 77 7475ft 106kts
09-Dec-20 14:33 37.744519 -121.436287 43 7433ft 103kts
09-Dec-20 14:34 37.764852 -121.410546 46 7415ft 105kts
09-Dec-20 14:35 37.783437 -121.381837 43 7337ft 106kts
09-Dec-20 14:36 37.802272 -121.353933 44 7437ft 105kts
09-Dec-20 14:37 37.822568 -121.327817 47 7387ft 103kts
09-Dec-20 14:38 37.842554 -121.301051 44 7365ft 104kts
09-Dec-20 14:39 37.863249 -121.275010 44 7424ft 105kts
09-Dec-20 14:40 37.883526 -121.248323 48 7423ft 106kts
09-Dec-20 14:41 37.903030 -121.220792 48 7467ft 104kts
09-Dec-20 14:42 37.919633 -121.190988 65 7522ft 103kts
09-Dec-20 14:43 37.938452 -121.163844 41 7559ft 105kts
09-Dec-20 14:44 37.959908 -121.137993 40 7538ft 106kts
09-Dec-20 14:45 37.981683 -121.112815 41 7548ft 106kts
09-Dec-20 14:46 38.004062 -121.087736 38 7501ft 108kts
09-Dec-20 14:47 38.026502 -121.061626 43 7406ft 106kts
09-Dec-20 14:48 38.048421 -121.035129 42 7282ft 109kts
09-Dec-20 14:49 38.069937 -121.009540 44 7334ft 104kts
09-Dec-20 14:50 38.085488 -120.979154 75 7384ft 103kts
09-Dec-20 14:51 38.094436 -120.944016 73 7405ft 105kts
09-Dec-20 14:52 38.102388 -120.907640 76 7350ft 105kts
09-Dec-20 14:53 38.111185 -120.873210 69 6750ft 102kts
09-Dec-20 14:54 38.120795 -120.840902 69 6109ft 96kts
09-Dec-20 14:55 38.131821 -120.809940 63 5505ft 95kts
09-Dec-20 14:56 38.143793 -120.780579 72 4920ft 95kts
09-Dec-20 14:57 38.141152 -120.748153 105 4387ft 90kts
09-Dec-20 14:58 38.128492 -120.720968 130 3749ft 83kts
09-Dec-20 14:59 38.116686 -120.697168 93 3103ft 75kts
09-Dec-20 15:00 38.123548 -120.670958 60 2544ft 84kts
09-Dec-20 15:01 38.143140 -120.664883 333 2237ft 96kts
09-Dec-20 15:02 38.162337 -120.667378 81 1870ft 80kts
09-Dec-20 15:03 38.147969 -120.649815 143 1311ft 48kts
09-Dec-20 15:04 38.147404 -120.648698 323 1316ft 18kts
09-Dec-20 15:05 38.150097 -120.651080 289 1304ft 0kts
09-Dec-20 15:06 38.150097 -120.651080 289 1304ft 0kts
09-Dec-20 15:07 38.150097 -120.651080 289 1304ft 0kts
09-Dec-20 15:08 38.149008 -120.650686 145 1308ft 37kts
09-Dec-20 15:09 38.129872 -120.636581 174 1814ft 86kts
09-Dec-20 15:10 38.118026 -120.660551 249 2502ft 89kts
09-Dec-20 15:11 38.117844 -120.689678 309 3267ft 88kts
09-Dec-20 15:12 38.135300 -120.710975 307 3860ft 90kts
09-Dec-20 15:13 38.143423 -120.740753 272 4476ft 91kts
09-Dec-20 15:14 38.144192 -120.772892 267 5005ft 90kts
09-Dec-20 15:15 38.137752 -120.803275 238 5524ft 90kts
09-Dec-20 15:16 38.127682 -120.832311 247 6019ft 91kts

Navigation Log

Ident Type
Flight plan parsing failed, navigation log unavailable